Accueil
METAR-TAF:

METAR-TAF

Aéroports :

Aéroport de Friedrichshafen

Friedrichshafen, Allemagne

latitude: 47-40N, longitude: 009-31E, altitude: 416 m

Observation

Le bulletin a été fait il y a 34 minutes, à 11:50 UTC
Vent 6 kt de sud/sud-ouest
Température 11°C
Humidité 40%
Pression 1016 hPa
Visibilité 10 km ou plus

METAR: EDNY 031150Z AUTO 20006KT 9999 // NCD 11/M02 Q1016

Heure: 14:24 (12:24 UTC)

Prévision

Le bulletin a été fait il y a 1 heure et 24 minutes, à 11:00 UTC
Prévision valable du 03 à 12 UTC au 04 à 12 UTC
Vent 5 kt de ouest/sud-ouest
Visibilité 10 km ou plus
pas de nuages en-dessous de 1500 mètres et pas de cumulonimbus.
Evoluant progressivement
du 03 à 16 UTC au 03 à 18 UTC
Vent 3 kt de direction variable
Evoluant progressivement
du 04 à 06 UTC au 04 à 08 UTC
Vent 8 kt de nord-est

TAF: EDNY 031100Z 0312/0412 25005KT CAVOK BECMG 0316/0318 VRB03KT BECMG 0406/0408 05008KT

Observations et prévisions météorologiques de plus de 4000 aéroports (messages METAR et TAF).

Les stations disponibles sont représentées par des disques jaunes et rouges sur la carte.

Passer la souris dessus pour voir le nom de la station.

Cliquer dessus pour voir les observations et prévisions météorologiques.

Pour changer de carte: cliquez sur les boutons verts avec une croix noire pour zoomer, sur le bouton vert avec un tiret pour effectuer un zoom arrière, ou sur les flèches vertes pour les cartes adjacentes.


METAR-TAF: